TimePST,TemperatureF,Dew PointF,Humidity,Sea Level PressureIn,VisibilityMPH,Wind Direction,Wind SpeedMPH,Gust SpeedMPH,PrecipitationIn,Events,Conditions,WindDirDegrees,DateUTC
12:53 AM,21.0,17.1,85,30.20,10.0,Calm,Calm,-,N/A,,Clear,0,2012-11-27 08:53:00
1:53 AM,18.0,10.9,74,30.21,10.0,East,3.5,-,N/A,,Clear,100,2012-11-27 09:53:00
2:53 AM,17.1,12.9,84,30.21,10.0,Calm,Calm,-,N/A,,Clear,0,2012-11-27 10:53:00
3:53 AM,17.1,12.9,84,30.22,10.0,Calm,Calm,-,N/A,,Clear,0,2012-11-27 11:53:00
4:53 AM,15.1,8.1,74,30.25,10.0,Calm,Calm,-,N/A,,Clear,0,2012-11-27 12:53:00
5:53 AM,15.1,12.0,88,30.27,10.0,ESE,5.8,-,N/A,,Clear,120,2012-11-27 13:53:00
6:53 AM,15.1,10.9,84,30.30,10.0,WNW,8.1,-,N/A,,Clear,290,2012-11-27 14:53:00
7:53 AM,19.9,12.0,71,30.32,10.0,Calm,Calm,-,N/A,,Clear,0,2012-11-27 15:53:00
8:53 AM,30.0,21.9,72,30.32,10.0,South,4.6,-,N/A,,Clear,170,2012-11-27 16:53:00
9:53 AM,35.1,25.0,67,30.31,10.0,Calm,Calm,-,N/A,,Clear,0,2012-11-27 17:53:00
10:53 AM,39.0,26.1,60,30.28,10.0,WNW,3.5,-,N/A,,Clear,300,2012-11-27 18:53:00
11:53 AM,46.9,27.0,46,30.22,10.0,ENE,4.6,-,N/A,,Clear,70,2012-11-27 19:53:00
12:53 PM,48.9,28.9,46,30.19,10.0,Calm,Calm,-,N/A,,Clear,0,2012-11-27 20:53:00
1:53 PM,53.1,28.9,40,30.16,10.0,ENE,4.6,-,N/A,,Clear,70,2012-11-27 21:53:00
2:53 PM,54.0,23.0,30,30.14,10.0,Calm,Calm,-,N/A,,Clear,0,2012-11-27 22:53:00
3:53 PM,53.1,25.0,34,30.14,10.0,Calm,Calm,-,N/A,,Clear,0,2012-11-27 23:53:00
4:53 PM,46.9,24.1,41,30.16,10.0,Calm,Calm,-,N/A,,Clear,0,2012-11-28 00:53:00
5:53 PM,37.0,19.9,50,30.19,10.0,West,3.5,-,N/A,,Clear,280,2012-11-28 01:53:00
6:53 PM,36.0,19.9,52,30.19,10.0,ENE,5.8,-,N/A,,Clear,60,2012-11-28 02:53:00
7:53 PM,33.1,17.1,52,30.19,10.0,West,3.5,-,N/A,,Clear,280,2012-11-28 03:53:00
8:53 PM,41.0,21.9,47,30.14,10.0,NE,6.9,-,N/A,,Clear,50,2012-11-28 04:53:00
9:53 PM,34.0,23.0,64,30.16,10.0,Variable,4.6,-,N/A,,Clear,0,2012-11-28 05:53:00
10:53 PM,30.9,19.9,64,30.15,10.0,WNW,5.8,-,N/A,,Clear,300,2012-11-28 06:53:00
11:53 PM,30.0,19.9,66,30.13,10.0,East,5.8,-,N/A,,Clear,100,2012-11-28 07:53:00